^^
Your Local Weather - Clay, NY Station Historical Data
Daily Summary for February 14, 2017 Units:  Metric    English   Both
« Previous Day
Next Day »
Daily Weekly Monthly Yearly Custom
  High: Low: Average:
Temperature: 5.5 °C -6.7 °C -0.3 °C
Dew Point: -2.2 °C -8.1 °C -4.7 °C
Humidity: 91% 50% 74%
Wind Speed: 8km/h 0km/h 1.9km/h
Wind Gust: 14.5km/h - -
Wind- - SSE
Pressure: 1015.1 hPa 999.5 hPa -
Precipitation: 14.48 mm    
Historical Graphs
 
 
Tabular Data for February 14, 2017
Time Temperature Dew Point Pressure Wind Wind Speed Wind Gust Humidity Rainfall Rate (Hourly) solar
00:04 -4.1 °C -5.9 °C 1015.1 hPa Calm     87% 0 mm 0 W/m2
00:10 -4.1 °C -5.9 °C 1015.1 hPa Calm     87% 0 mm 0 W/m2
00:16 -4.2 °C -5.8 °C 1015.1 hPa Calm     88% 0 mm 0 W/m2
00:22 -4.3 °C -5.9 °C 1015.1 hPa Calm     88% 0 mm 0 W/m2
00:28 -4.3 °C -6 °C 1015.1 hPa Calm     88% 0 mm 0 W/m2
00:34 -4.4 °C -6.1 °C 1015.1 hPa Calm     88% 0 mm 0 W/m2
00:40 -4.4 °C -5.9 °C 1015.1 hPa Calm     89% 0 mm 0 W/m2
00:46 -4.4 °C -5.9 °C 1015.1 hPa Calm     89% 0 mm 0 W/m2
00:52 -4.4 °C -5.9 °C 1015.1 hPa Calm     89% 0 mm 0 W/m2
00:58 -4.4 °C -6 °C 1015.1 hPa Calm     89% 0 mm 0 W/m2
01:04 -4.4 °C -6 °C 1015.1 hPa Calm     89% 0 mm 0 W/m2
01:10 -4.4 °C -5.9 °C 1015.1 hPa Calm     89% 0 mm 0 W/m2
01:16 -4.3 °C -5.8 °C 1014.8 hPa Calm     89% 0 mm 0 W/m2
01:22 -4.1 °C -5.8 °C 1014.8 hPa Calm   1.6 km/h 88% 0 mm 0 W/m2
01:28 -4.1 °C -5.9 °C 1014.8 hPa Calm   1.6 km/h 87% 0 mm 0 W/m2
01:34 -4.1 °C -5.9 °C 1014.8 hPa Calm   1.6 km/h 87% 0 mm 0 W/m2
01:40 -4 °C -5.8 °C 1014.8 hPa WNW 1.6 km/h 1.6 km/h 87% 0 mm 0 W/m2
01:46 -4 °C -6 °C 1014.8 hPa Calm   1.6 km/h 86% 0 mm 0 W/m2
01:52 -3.9 °C -5.9 °C 1014.4 hPa Calm     86% 0 mm 0 W/m2
01:58 -3.9 °C -5.9 °C 1014.4 hPa Calm     86% 0 mm 0 W/m2
02:04 -3.9 °C -5.9 °C 1014.4 hPa Calm   3.2 km/h 86% 0 mm 0 W/m2
02:10 -3.9 °C -6.1 °C 1014.1 hPa Calm     85% 0 mm 0 W/m2
02:16 -3.9 °C -6.1 °C 1014.1 hPa Calm     85% 0 mm 0 W/m2
02:22 -3.9 °C -6.1 °C 1014.1 hPa Calm     85% 0 mm 0 W/m2
02:28 -3.9 °C -6.1 °C 1014.1 hPa Calm     85% 0 mm 0 W/m2
02:34 -3.9 °C -6.1 °C 1014.1 hPa Calm   1.6 km/h 85% 0 mm 0 W/m2
02:40 -3.8 °C -6 °C 1014.1 hPa Calm   1.6 km/h 85% 0 mm 0 W/m2
02:46 -3.8 °C -6 °C 1014.1 hPa Calm   1.6 km/h 85% 0 mm 0 W/m2
02:52 -3.8 °C -6 °C 1014.1 hPa Calm     85% 0 mm 0 W/m2
02:58 -3.9 °C -6.1 °C 1013.8 hPa Calm     85% 0 mm 0 W/m2
03:04 -3.9 °C -6.1 °C 1013.8 hPa Calm     85% 0 mm 0 W/m2
03:10 -3.9 °C -6.1 °C 1013.8 hPa Calm     85% 0 mm 0 W/m2
03:16 -3.9 °C -6.1 °C 1013.4 hPa Calm     85% 0 mm 0 W/m2
03:22 -4 °C -6.2 °C 1013.4 hPa Calm     85% 0 mm 0 W/m2
03:28 -4.1 °C -6.1 °C 1013.4 hPa Calm     86% 0 mm 0 W/m2
03:34 -4.1 °C -6.1 °C 1013.4 hPa Calm     86% 0 mm 0 W/m2
03:40 -4.2 °C -6 °C 1013.1 hPa Calm     87% 0 mm 0 W/m2
03:46 -4.3 °C -6.1 °C 1013.1 hPa Calm     87% 0 mm 0 W/m2
03:52 -4.3 °C -6 °C 1013.1 hPa Calm     88% 0 mm 0 W/m2
03:58 -4.4 °C -6.1 °C 1013.4 hPa Calm     88% 0 mm 0 W/m2
04:04 -4.4 °C -5.9 °C 1013.4 hPa Calm     89% 0 mm 0 W/m2
04:10 -4.4 °C -5.9 °C 1013.4 hPa Calm     89% 0 mm 0 W/m2
04:16 -4.4 °C -6 °C 1013.1 hPa Calm     89% 0 mm 0 W/m2
04:22 -4.5 °C -6.1 °C 1013.4 hPa Calm     89% 0 mm 0 W/m2
04:28 -4.5 °C -6.1 °C 1013.4 hPa Calm     89% 0 mm 0 W/m2
04:34 -4.6 °C -6.1 °C 1013.4 hPa Calm     89% 0 mm 0 W/m2
04:40 -4.5 °C -6.1 °C 1013.1 hPa Calm     89% 0 mm 0 W/m2
04:46 -4.6 °C -6.1 °C 1013.1 hPa Calm     89% 0 mm 0 W/m2
04:52 -4.6 °C -6.2 °C 1013.1 hPa Calm     89% 0 mm 0 W/m2
04:58 -4.8 °C -6.3 °C 1013.1 hPa Calm     89% 0 mm 0 W/m2
05:04 -5.1 °C -6.7 °C 1013.1 hPa Calm     89% 0 mm 0 W/m2
05:10 -5.3 °C -6.9 °C 1013.1 hPa Calm     88% 0 mm 0 W/m2
05:16 -5.4 °C -6.9 °C 1013.1 hPa Calm     89% 0 mm 0 W/m2
05:22 -5.6 °C -7.1 °C 1013.1 hPa Calm     89% 0 mm 0 W/m2
05:28 -5.7 °C -7.2 °C 1012.8 hPa Calm     89% 0 mm 0 W/m2
05:36 -5.8 °C -7.2 °C 1013.1 hPa Calm     90% 0 mm 0 W/m2
05:42 -5.8 °C -7.2 °C 1012.8 hPa Calm     90% 0 mm 0 W/m2
05:48 -5.8 °C -7.2 °C 1012.8 hPa Calm     90% 0 mm 0 W/m2
05:54 -5.8 °C -7.2 °C 1012.8 hPa Calm     90% 0 mm 0 W/m2
06:00 -5.8 °C -7.2 °C 1012.4 hPa Calm     90% 0 mm 0 W/m2
06:06 -5.9 °C -7.3 °C 1012.4 hPa Calm     90% 0 mm 0 W/m2
06:12 -6.2 °C -7.6 °C 1012.4 hPa Calm     90% 0 mm 0 W/m2
06:18 -6.3 °C -7.7 °C 1012.4 hPa Calm     90% 0 mm 0 W/m2
06:24 -6.4 °C -7.8 °C 1012.4 hPa Calm     90% 0 mm 0 W/m2
06:30 -6.4 °C -7.8 °C 1012.4 hPa Calm     90% 0 mm 0 W/m2
06:36 -6.4 °C -7.8 °C 1012.1 hPa Calm     90% 0 mm 0 W/m2
06:42 -6.5 °C -7.9 °C 1012.1 hPa Calm     90% 0 mm 0 W/m2
06:48 -6.6 °C -7.8 °C 1012.1 hPa Calm     91% 0 mm 0 W/m2
06:54 -6.7 °C -8.1 °C 1012.1 hPa Calm     90% 0 mm 0 W/m2
07:00 -6.7 °C -7.9 °C 1011.7 hPa Calm     91% 0 mm 0 W/m2
07:06 -6.7 °C -7.9 °C 1011.7 hPa Calm     91% 0 mm 0 W/m2
07:12 -6.5 °C -7.7 °C 1011.7 hPa Calm     91% 0 mm 0 W/m2
07:18 -6.4 °C -7.7 °C 1011.7 hPa Calm     91% 0 mm 0 W/m2
07:24 -6.4 °C -7.7 °C 1011.7 hPa Calm     91% 0 mm 0 W/m2
07:30 -5.9 °C -7.2 °C 1011.7 hPa Calm   3.2 km/h 91% 0 mm 0 W/m2
07:36 -5.6 °C -6.8 °C 1011.7 hPa Calm   3.2 km/h 91% 0 mm 0 W/m2
07:42 -5.4 °C -6.7 °C 1011.4 hPa Calm   1.6 km/h 91% 0 mm 5 W/m2
07:48 -5.4 °C -6.6 °C 1011.4 hPa Calm   1.6 km/h 91% 0 mm 5 W/m2
07:54 -5.1 °C -6.5 °C 1011.4 hPa WNW 1.6 km/h 3.2 km/h 90% 0 mm 7 W/m2
08:00 -5.3 °C -6.8 °C 1011.4 hPa WNW 1.6 km/h 1.6 km/h 89% 0 mm 18 W/m2
08:06 -5.2 °C -6.7 °C 1011.4 hPa Calm   1.6 km/h 89% 0 mm 26 W/m2
08:12 -4.5 °C -6.1 °C 1011.7 hPa WNW 1.6 km/h 1.6 km/h 89% 0 mm 16 W/m2
08:18 -4 °C -5.8 °C 1011.4 hPa SE 1.6 km/h 4.8 km/h 87% 0 mm 18 W/m2
08:24 -3.8 °C -5.8 °C 1011.1 hPa SE 1.6 km/h 4.8 km/h 86% 0 mm 18 W/m2
08:32 -3.6 °C -5.8 °C 1011.4 hPa Calm   1.6 km/h 85% 0 mm 19 W/m2
08:38 -3.5 °C -5.7 °C 1011.4 hPa SE 1.6 km/h 1.6 km/h 85% 0 mm 25 W/m2
08:44 -3.3 °C -5.6 °C 1011.1 hPa SE 1.6 km/h 3.2 km/h 84% 0 mm 26 W/m2
08:50 -3.2 °C -5.7 °C 1011.1 hPa SE 1.6 km/h 1.6 km/h 83% 0 mm 25 W/m2
08:56 -3.1 °C -5.7 °C 1011.1 hPa SE 1.6 km/h 4.8 km/h 82% 0 mm 28 W/m2
09:02 -2.8 °C -5.4 °C 1010.7 hPa SE 1.6 km/h 3.2 km/h 82% 0 mm 40 W/m2
09:08 -2.4 °C -5.4 °C 1010.7 hPa SE 1.6 km/h 6.4 km/h 80% 0 mm 37 W/m2
09:14 -2.3 °C -5.5 °C 1010.4 hPa SE 3.2 km/h 4.8 km/h 79% 0 mm 40 W/m2
09:20 -2.3 °C -5.5 °C 1010.4 hPa SE 3.2 km/h 4.8 km/h 79% 0 mm 30 W/m2
09:26 -2.2 °C -5.4 °C 1010.4 hPa SE 3.2 km/h 4.8 km/h 79% 0 mm 30 W/m2
09:32 -2.2 °C -5.4 °C 1010.4 hPa SE 3.2 km/h 3.2 km/h 79% 0 mm 30 W/m2
09:38 -2.2 °C -5.6 °C 1010 hPa SSE 3.2 km/h 4.8 km/h 78% 0 mm 32 W/m2
09:44 -2.2 °C -5.6 °C 1010 hPa SE 3.2 km/h 9.7 km/h 78% 0 mm 37 W/m2
09:50 -2.1 °C -5.4 °C 1010 hPa SE 3.2 km/h 3.2 km/h 78% 0 mm 37 W/m2
09:56 -1.9 °C -5.4 °C 1009.7 hPa SE 3.2 km/h 4.8 km/h 77% 0 mm 37 W/m2
10:02 -1.8 °C -5.3 °C 1009.7 hPa SE 3.2 km/h 3.2 km/h 77% 0 mm 37 W/m2
10:08 -1.8 °C -5.3 °C 1009.7 hPa SSE 3.2 km/h 8 km/h 77% 0 mm 39 W/m2
10:14 -1.7 °C -5.3 °C 1009.4 hPa SE 3.2 km/h 8 km/h 76% 0 mm 40 W/m2
10:20 -1.6 °C -5.2 °C 1009.4 hPa SE 3.2 km/h 6.4 km/h 76% 0 mm 42 W/m2
10:26 -1.4 °C -5.2 °C 1009.4 hPa South 3.2 km/h 6.4 km/h 75% 0 mm 40 W/m2
10:32 -1.3 °C -5.2 °C 1009.4 hPa SE 3.2 km/h 3.2 km/h 75% 0 mm 37 W/m2
10:38 -1.3 °C -5.3 °C 1009 hPa SE 3.2 km/h 9.7 km/h 74% 0 mm 40 W/m2
10:44 -1.2 °C -5.1 °C 1009 hPa SSE 3.2 km/h 4.8 km/h 75% 0 mm 44 W/m2
10:50 -1.1 °C -5.2 °C 1009 hPa SE 4.8 km/h 6.4 km/h 74% 0 mm 49 W/m2
10:56 -0.9 °C -4.9 °C 1009 hPa SE 4.8 km/h 6.4 km/h 74% 0 mm 53 W/m2
11:02 -0.7 °C -4.9 °C 1008.7 hPa SE 4.8 km/h 9.7 km/h 73% 0 mm 63 W/m2
11:08 -0.4 °C -4.8 °C 1008.4 hPa SE 6.4 km/h 9.7 km/h 72% 0 mm 83 W/m2
11:14 -0.1 °C -4.9 °C 1008.4 hPa SSE 6.4 km/h 8 km/h 70% 0 mm 84 W/m2
11:20 0.3 °C -4.7 °C 1008 hPa East 6.4 km/h 8 km/h 69% 0 mm 53 W/m2
11:26 0.4 °C -5.1 °C 1008 hPa South 8 km/h 11.3 km/h 67% 0 mm 74 W/m2
11:32 0.6 °C -4.9 °C 1007.7 hPa South 8 km/h 8 km/h 67% 0 mm 86 W/m2
11:38 0.7 °C -4.9 °C 1007.7 hPa SSE 8 km/h 11.3 km/h 66% 0 mm 107 W/m2
11:44 0.8 °C -4.6 °C 1007.3 hPa SE 8 km/h 9.7 km/h 67% 0 mm 116 W/m2
11:50 1.2 °C -4.6 °C 1007.3 hPa SE 6.4 km/h 9.7 km/h 65% 1.52 mm 86 W/m2
11:56 1.1 °C -4.7 °C 1007 hPa SE 8 km/h 12.9 km/h 65% 1.52 mm 90 W/m2
12:02 1.1 °C -4.6 °C 1007 hPa SSE 8 km/h 9.7 km/h 66% 1.52 mm 93 W/m2
12:08 1.3 °C -4.3 °C 1006.7 hPa ESE 8 km/h 9.7 km/h 66% 2.03 mm 97 W/m2
12:14 1.5 °C -4.4 °C 1006.7 hPa SSE 6.4 km/h 8 km/h 65% 1.78 mm 91 W/m2
12:20 1.6 °C -4.5 °C 1006.3 hPa SE 6.4 km/h 6.4 km/h 64% 1.78 mm 111 W/m2
12:26 1.7 °C -4.2 °C 1006.3 hPa SE 4.8 km/h 8 km/h 65% 2.29 mm 111 W/m2
12:32 1.9 °C -4.2 °C 1006 hPa East 6.4 km/h 6.4 km/h 64% 1.78 mm 114 W/m2
12:38 2.1 °C -4.4 °C 1006 hPa SE 4.8 km/h 6.4 km/h 62% 2.29 mm 141 W/m2
12:44 2.2 °C -4.2 °C 1005.6 hPa SE 4.8 km/h 8 km/h 63% 2.03 mm 183 W/m2
12:50 2.8 °C -4 °C 1005.6 hPa South 4.8 km/h 4.8 km/h 61% 1.78 mm 179 W/m2
12:56 3.1 °C -4.1 °C 1005.6 hPa South 4.8 km/h 8 km/h 59% 2.54 mm 378 W/m2
13:02 3.3 °C -3.8 °C 1005.3 hPa South 6.4 km/h 6.4 km/h 60% 3.3 mm 566 W/m2
13:08 3.3 °C -4.2 °C 1005.3 hPa SSE 6.4 km/h 6.4 km/h 58% 2.79 mm 559 W/m2
13:14 3.3 °C -4.2 °C 1005 hPa SE 6.4 km/h 8 km/h 58% 4.32 mm 548 W/m2
13:20 3.5 °C -4.2 °C 1005 hPa SSE 4.8 km/h 8 km/h 57% 4.32 mm 550 W/m2
13:26 3.4 °C -3.9 °C 1004.6 hPa SE 6.4 km/h 11.3 km/h 59% 3.56 mm 545 W/m2
13:32 3.5 °C -4 °C 1004.6 hPa SSE 8 km/h 9.7 km/h 58% 3.81 mm 559 W/m2
13:38 3.7 °C -3.8 °C 1004.3 hPa SSE 8 km/h 12.9 km/h 58% 4.06 mm 555 W/m2
13:44 3.9 °C -3.9 °C 1004.3 hPa SSE 6.4 km/h 8 km/h 57% 4.57 mm 550 W/m2
13:50 4.3 °C -3.4 °C 1004.3 hPa SSW 4.8 km/h 4.8 km/h 57% 4.32 mm 552 W/m2
13:56 4.3 °C -3.7 °C 1003.9 hPa WSW 4.8 km/h 4.8 km/h 56% 3.81 mm 570 W/m2
14:02 4.4 °C -4.6 °C 1003.9 hPa South 6.4 km/h 12.9 km/h 52% 3.56 mm 527 W/m2
14:08 4.2 °C -3.8 °C 1003.9 hPa SSW 8 km/h 14.5 km/h 56% 3.81 mm 439 W/m2
14:14 4.2 °C -4.1 °C 1003.9 hPa South 8 km/h 9.7 km/h 55% 4.57 mm 431 W/m2
14:20 4.2 °C -3.8 °C 1003.9 hPa South 4.8 km/h 4.8 km/h 56% 4.57 mm 295 W/m2
14:26 4 °C -4.2 °C 1003.9 hPa South 4.8 km/h 9.7 km/h 55% 2.79 mm 234 W/m2
14:32 4.1 °C -4.1 °C 1003.9 hPa SW 4.8 km/h 6.4 km/h 55% 3.3 mm 246 W/m2
14:38 4.3 °C -4.2 °C 1003.6 hPa South 4.8 km/h 6.4 km/h 54% 2.03 mm 656 W/m2
14:44 4.8 °C -3.9 °C 1003.6 hPa South 6.4 km/h 9.7 km/h 53% 2.79 mm 476 W/m2
14:50 4.9 °C -4.1 °C 1003.6 hPa SSE 6.4 km/h 6.4 km/h 52% 4.06 mm 478 W/m2
14:56 5 °C -3.8 °C 1003.6 hPa SE 4.8 km/h 8 km/h 53% 3.05 mm 471 W/m2
15:02 4.7 °C -3.8 °C 1003.6 hPa SE 6.4 km/h 6.4 km/h 54% 3.56 mm 272 W/m2
15:08 4.8 °C -3.7 °C 1003.3 hPa SE 4.8 km/h 8 km/h 54% 3.05 mm 503 W/m2
15:14 5.1 °C -3.7 °C 1003.3 hPa SSE 4.8 km/h 4.8 km/h 53% 2.79 mm 390 W/m2
15:20 5.5 °C -3.8 °C 1002.9 hPa SSW 3.2 km/h 3.2 km/h 51% 3.56 mm 369 W/m2
15:26 5.3 °C -3.8 °C 1002.9 hPa South 4.8 km/h 8 km/h 52% 3.05 mm 350 W/m2
15:32 5.1 °C -4.5 °C 1002.9 hPa SE 6.4 km/h 8 km/h 50% 3.05 mm 334 W/m2
15:38 5.1 °C -4.2 °C 1002.9 hPa SSE 8 km/h 9.7 km/h 51% 2.29 mm 318 W/m2
15:44 5 °C -4.3 °C 1002.9 hPa South 8 km/h 12.9 km/h 51% 2.29 mm 301 W/m2
15:50 4.9 °C -4.4 °C 1002.9 hPa SSW 8 km/h 8 km/h 51% 2.03 mm 281 W/m2
15:56 5.1 °C -4.2 °C 1002.9 hPa SSW 8 km/h 11.3 km/h 51% 1.78 mm 278 W/m2
16:02 5.1 °C -4 °C 1002.9 hPa SSE 6.4 km/h 6.4 km/h 52% 2.29 mm 220 W/m2
16:08 4.9 °C -3.7 °C 1002.9 hPa SSE 3.2 km/h 6.4 km/h 54% 1.52 mm 118 W/m2
16:14 4.7 °C -4.1 °C 1002.9 hPa SSE 3.2 km/h 4.8 km/h 53% 1.52 mm 83 W/m2
16:20 4.6 °C -4.2 °C 1002.6 hPa South 4.8 km/h 4.8 km/h 53% 1.52 mm 77 W/m2
16:26 4.6 °C -3.9 °C 1002.6 hPa South 4.8 km/h 4.8 km/h 54% 1.52 mm 79 W/m2
16:32 4.4 °C -3.9 °C 1002.6 hPa SSE 1.6 km/h 6.4 km/h 55% 1.27 mm 69 W/m2
16:38 4.4 °C -3.8 °C 1002.3 hPa SSE 3.2 km/h 8 km/h 55% 0 mm 65 W/m2
16:44 4.4 °C -3.6 °C 1002.3 hPa SSE 4.8 km/h 4.8 km/h 56% 0 mm 60 W/m2
16:50 4.3 °C -3.5 °C 1002.3 hPa SSE 1.6 km/h 1.6 km/h 57% 0 mm 58 W/m2
16:56 4.1 °C -3.7 °C 1002.3 hPa Calm   1.6 km/h 57% 0 mm 53 W/m2
17:02 3.9 °C -3.6 °C 1002.6 hPa Calm     58% 0 mm 30 W/m2
17:08 3.8 °C -3.7 °C 1002.6 hPa Calm   3.2 km/h 58% 0 mm 21 W/m2
17:14 3.7 °C -3.4 °C 1002.6 hPa Calm     60% 0 mm 18 W/m2
17:20 3.4 °C -3.2 °C 1002.6 hPa Calm     62% 0 mm 9 W/m2
17:26 3.1 °C -2.5 °C 1002.6 hPa Calm     67% 0 mm 5 W/m2
17:32 2.8 °C -2.7 °C 1002.6 hPa Calm     67% 0 mm 0 W/m2
17:38 2.6 °C -2.7 °C 1002.3 hPa Calm     68% 0 mm 0 W/m2
17:44 2.6 °C -2.8 °C 1002.3 hPa Calm   1.6 km/h 68% 0 mm 0 W/m2
17:50 2.6 °C -3.2 °C 1002.3 hPa Calm     66% 0 mm 0 W/m2
17:56 2.8 °C -3.1 °C 1002.3 hPa SSE 1.6 km/h 4.8 km/h 65% 0 mm 0 W/m2
18:03 2.8 °C -2.9 °C 1002.3 hPa SSE 1.6 km/h 1.6 km/h 66% 0 mm 0 W/m2
18:08 2.9 °C -3.2 °C 1002.3 hPa SSE 1.6 km/h 3.2 km/h 64% 0 mm 0 W/m2
18:14 3.1 °C -3.1 °C 1002.3 hPa SSE 1.6 km/h 1.6 km/h 64% 0 mm 0 W/m2
18:20 3.2 °C -3.2 °C 1002.3 hPa SE 1.6 km/h 4.8 km/h 63% 0 mm 0 W/m2
18:26 3.1 °C -3.1 °C 1002.3 hPa SSE 1.6 km/h 4.8 km/h 64% 0 mm 0 W/m2
18:32 3 °C -2.7 °C 1002.3 hPa SSE 1.6 km/h 3.2 km/h 66% 0 mm 0 W/m2
18:38 2.8 °C -2.9 °C 1002.3 hPa Calm   3.2 km/h 66% 0 mm 0 W/m2
18:44 2.8 °C -2.9 °C 1002.3 hPa SSE 1.6 km/h 3.2 km/h 66% 0 mm 0 W/m2
18:50 2.8 °C -2.7 °C 1002.3 hPa SSE 1.6 km/h 1.6 km/h 67% 0 mm 0 W/m2
18:56 2.7 °C -2.8 °C 1002.3 hPa Calm   1.6 km/h 67% 0 mm 0 W/m2
19:02 2.8 °C -3.1 °C 1001.9 hPa SSE 1.6 km/h 3.2 km/h 65% 0 mm 0 W/m2
19:08 2.9 °C -3 °C 1001.9 hPa SE 1.6 km/h 3.2 km/h 65% 0 mm 0 W/m2
19:14 3 °C -2.9 °C 1001.6 hPa SE 1.6 km/h 1.6 km/h 65% 0 mm 0 W/m2
19:20 3.1 °C -3.1 °C 1001.9 hPa SE 1.6 km/h 3.2 km/h 64% 0 mm 0 W/m2
19:26 3.3 °C -3.1 °C 1001.6 hPa SSE 1.6 km/h 4.8 km/h 63% 0 mm 0 W/m2
19:32 3.4 °C -3.4 °C 1001.6 hPa SSE 1.6 km/h 1.6 km/h 61% 0 mm 0 W/m2
19:38 3.4 °C -3.4 °C 1001.6 hPa South 1.6 km/h 1.6 km/h 61% 0 mm 0 W/m2
19:44 3.4 °C -3.2 °C 1001.6 hPa South 1.6 km/h 1.6 km/h 62% 0 mm 0 W/m2
19:50 3.4 °C -3.2 °C 1001.6 hPa Calm     62% 0 mm 0 W/m2
19:56 3.4 °C -3.2 °C 1001.6 hPa Calm     62% 0 mm 0 W/m2
20:02 3.2 °C -3.4 °C 1001.6 hPa Calm   1.6 km/h 62% 0 mm 0 W/m2
20:08 3.3 °C -3.1 °C 1002.3 hPa WSW 1.6 km/h 3.2 km/h 63% 0 mm 0 W/m2
20:14 3.3 °C -3.1 °C 1002.3 hPa WSW 1.6 km/h 1.6 km/h 63% 0 mm 0 W/m2
20:20 3.3 °C -3.1 °C 1002.3 hPa WSW 1.6 km/h 1.6 km/h 63% 0 mm 0 W/m2
20:26 3.3 °C -3.1 °C 1001.9 hPa Calm   1.6 km/h 63% 0 mm 0 W/m2
20:32 3.2 °C -3.2 °C 1001.9 hPa Calm     63% 0 mm 0 W/m2
20:38 3.3 °C -3.1 °C 1001.9 hPa Calm     63% 0 mm 0 W/m2
20:44 3.2 °C -2.9 °C 1001.9 hPa Calm     64% 0 mm 0 W/m2
20:50 3.3 °C -3.1 °C 1001.6 hPa WSW 1.6 km/h 1.6 km/h 63% 0 mm 0 W/m2
20:56 3.2 °C -2.9 °C 1001.6 hPa WSW 1.6 km/h 1.6 km/h 64% 0 mm 0 W/m2
21:02 3.1 °C -2.8 °C 1001.6 hPa Calm     65% 0 mm 0 W/m2
21:08 3.2 °C -2.8 °C 1001.2 hPa Calm   1.6 km/h 65% 0 mm 0 W/m2
21:14 3.2 °C -2.7 °C 1001.2 hPa SW 1.6 km/h 1.6 km/h 65% 0 mm 0 W/m2
21:20 3.3 °C -2.6 °C 1001.2 hPa South 1.6 km/h 1.6 km/h 65% 0 mm 0 W/m2
21:26 3.4 °C -2.8 °C 1001.2 hPa South 1.6 km/h 4.8 km/h 64% 0 mm 0 W/m2
21:32 3.4 °C -2.7 °C 1001.2 hPa South 1.6 km/h 3.2 km/h 64% 0 mm 0 W/m2
21:38 3.4 °C -2.7 °C 1001.2 hPa South 1.6 km/h 3.2 km/h 64% 0 mm 0 W/m2
21:44 3.4 °C -2.6 °C 1000.9 hPa South 1.6 km/h 1.6 km/h 65% 0 mm 0 W/m2
21:50 3.3 °C -2.7 °C 1000.9 hPa Calm     65% 0 mm 0 W/m2
21:56 3.2 °C -2.7 °C 1000.9 hPa Calm     65% 0 mm 0 W/m2
22:02 3.1 °C -2.6 °C 1000.9 hPa Calm     66% 0 mm 0 W/m2
22:08 2.9 °C -2.4 °C 1000.9 hPa Calm     68% 0 mm 0 W/m2
22:14 2.7 °C -2.4 °C 1000.9 hPa Calm     69% 0 mm 0 W/m2
22:22 2.3 °C -2.3 °C 1000.9 hPa Calm     72% 0 mm 0 W/m2
22:28 1.9 °C -2.6 °C 1000.9 hPa Calm     72% 0 mm 0 W/m2
22:34 1.8 °C -2.6 °C 1000.6 hPa Calm     73% 0 mm 0 W/m2
22:40 1.6 °C -2.5 °C 1000.6 hPa Calm     74% 0 mm 0 W/m2
22:46 1.4 °C -2.6 °C 1000.6 hPa Calm     75% 0 mm 0 W/m2
22:52 1.2 °C -2.6 °C 1000.2 hPa Calm     76% 0 mm 0 W/m2
22:58 1.2 °C -2.6 °C 1000.2 hPa Calm     76% 0 mm 0 W/m2
23:04 1.1 °C -2.5 °C 1000.2 hPa Calm     77% 0 mm 0 W/m2
23:10 1.1 °C -2.6 °C 1000.2 hPa Calm     77% 0 mm 0 W/m2
23:16 1 °C -2.4 °C 1000.2 hPa Calm     78% 0 mm 0 W/m2
23:22 0.9 °C -2.3 °C 1000.2 hPa Calm     79% 0 mm 0 W/m2
23:28 0.9 °C -2.3 °C 1000.2 hPa Calm     79% 0 mm 0 W/m2
23:34 0.9 °C -2.2 °C 999.9 hPa Calm     80% 0 mm 0 W/m2
23:40 0.8 °C -2.3 °C 999.9 hPa Calm     80% 0 mm 0 W/m2
23:46 0.7 °C -2.2 °C 999.9 hPa Calm     81% 0 mm 0 W/m2
23:52 0.7 °C -2.2 °C 999.9 hPa Calm     81% 0 mm 0 W/m2
23:58 0.6 °C -2.3 °C 999.5 hPa Calm     81% 0 mm 0 W/m2
Country Meadow, Clay, NY, USA
Compliments of Weather Underground - 2 mb